0TX5 weather

Shiloh Airport
Flower Mound, Texas, United States

Public forecast

Using degrees Fahrenheit for public forecast. Weather courtesy of forecast.io.

METAR (pilot weather report)

Closest report is Dallas Fort Worth International Airport, 8.7 nm (16.1 km) SSE. Retrieved 2019/09/15 04:53 UTC (19 minutes ago):

KDFW 150453Z 11006KT 10SM CLR 28/18 A3007 RMK AO2 SLP172 T02830178

TAF (pilot weather forecast)

Forecast is more than 12 hours old.

Closest forecast is Dallas Fort Worth International Airport, 8.7 nm (16.1 km) SSE. Retrieved 2019/09/14 00:27 UTC (1 day ago):

TAF KDFW 142324Z 1500/1606 11007KT P6SM FEW080